createdAt,value
2023-04-28T00:00:41.264Z,2.92
2023-04-28T00:03:09.711Z,1.50
2023-04-28T00:05:38.100Z,2.53
2023-04-28T00:08:06.723Z,2.03
2023-04-28T00:10:35.152Z,3.25
2023-04-28T00:13:03.562Z,2.03
2023-04-28T00:15:31.795Z,2.13
2023-04-28T00:18:00.223Z,1.88
2023-04-28T00:20:28.479Z,2.50
2023-04-28T00:22:56.786Z,1.30
2023-04-28T00:25:25.061Z,4.47
2023-04-28T00:27:53.326Z,2.30
2023-04-28T00:30:21.778Z,2.28
2023-04-28T00:32:50.176Z,3.47
2023-04-28T00:35:18.638Z,3.85
2023-04-28T00:37:46.849Z,2.10
2023-04-28T00:40:15.188Z,8.18
2023-04-28T00:42:43.449Z,5.05
2023-04-28T00:45:12.012Z,1.70
2023-04-28T00:47:41.964Z,2.17
2023-04-28T00:50:10.682Z,2.78
2023-04-28T00:52:39.864Z,2.08
2023-04-28T00:55:09.518Z,2.50
2023-04-28T00:57:37.757Z,2.22
2023-04-28T01:00:08.442Z,3.97
2023-04-28T01:02:39.981Z,2.03
2023-04-28T01:05:10.190Z,1.65
2023-04-28T01:07:39.185Z,2.22
2023-04-28T01:10:09.141Z,2.00
2023-04-28T01:12:37.565Z,3.70
2023-04-28T01:15:06.808Z,5.50
2023-04-28T01:17:35.861Z,5.35
2023-04-28T01:20:04.745Z,6.20
2023-04-28T01:22:33.320Z,2.53
2023-04-28T01:25:04.108Z,2.75
2023-04-28T01:27:32.456Z,2.63
2023-04-28T01:30:01.706Z,4.68
2023-04-28T01:32:30.176Z,3.08
2023-04-28T01:34:58.433Z,4.13
2023-04-28T01:37:26.652Z,6.00
2023-04-28T01:39:55.720Z,3.88
2023-04-28T01:42:23.961Z,5.85
2023-04-28T01:44:52.137Z,4.53
2023-04-28T01:47:20.720Z,4.70
2023-04-28T01:49:50.141Z,3.72
2023-04-28T01:52:19.967Z,4.63
2023-04-28T01:54:48.688Z,3.85
2023-04-28T01:57:18.019Z,3.85
2023-04-28T01:59:47.218Z,3.53
2023-04-28T02:02:15.948Z,5.35
2023-04-28T02:04:44.303Z,5.55
2023-04-28T02:07:12.829Z,3.50
2023-04-28T02:09:41.053Z,3.15
2023-04-28T02:12:09.292Z,6.60
2023-04-28T02:14:37.584Z,4.00
2023-04-28T02:17:06.199Z,3.78
2023-04-28T02:19:35.029Z,7.00
2023-04-28T02:22:03.285Z,4.43
2023-04-28T02:24:34.802Z,6.15
2023-04-28T02:27:04.000Z,3.13
2023-04-28T02:29:32.452Z,3.08
2023-04-28T02:32:00.785Z,4.80
2023-04-28T02:34:29.062Z,4.38
2023-04-28T02:36:57.284Z,2.95
2023-04-28T02:39:27.235Z,3.95
2023-04-28T02:41:58.097Z,4.70
2023-04-28T02:44:27.061Z,5.80
2023-04-28T02:46:55.537Z,4.68
2023-04-28T02:49:26.725Z,8.13
2023-04-28T02:51:54.971Z,5.10
2023-04-28T02:54:29.087Z,5.55
2023-04-28T02:56:59.239Z,5.43
2023-04-28T02:59:27.568Z,5.82
2023-04-28T03:01:55.950Z,7.47
2023-04-28T03:04:24.424Z,9.23
2023-04-28T03:06:52.922Z,6.35
2023-04-28T03:09:21.366Z,6.97
2023-04-28T03:11:49.599Z,4.55
2023-04-28T03:14:18.026Z,5.32
2023-04-28T03:16:46.513Z,4.95
2023-04-28T03:19:16.318Z,6.13
2023-04-28T03:21:44.570Z,5.03
2023-04-28T03:24:14.997Z,6.90
2023-04-28T03:26:43.593Z,8.20
2023-04-28T03:29:11.866Z,4.25
2023-04-28T03:31:40.210Z,4.97
2023-04-28T03:34:08.966Z,9.20
2023-04-28T03:36:37.706Z,8.82
2023-04-28T03:39:13.672Z,6.57
2023-04-28T03:41:42.131Z,8.07
2023-04-28T03:44:39.555Z,5.50
2023-04-28T03:47:08.944Z,3.92
2023-04-28T03:49:38.295Z,6.35
2023-04-28T03:52:06.613Z,6.78
2023-04-28T03:54:35.820Z,6.72
2023-04-28T03:57:04.725Z,7.28
2023-04-28T03:59:34.749Z,5.70
2023-04-28T04:02:03.209Z,5.55
2023-04-28T04:04:32.020Z,7.13
2023-04-28T04:07:00.745Z,6.82
2023-04-28T04:09:30.001Z,8.60
2023-04-28T04:11:58.868Z,5.93
2023-04-28T04:14:27.140Z,8.13
2023-04-28T04:16:57.335Z,12.05
2023-04-28T04:19:26.738Z,26.13
2023-04-28T04:21:56.706Z,37.90
2023-04-28T04:24:25.180Z,61.85
2023-04-28T04:26:53.588Z,65.07
2023-04-28T04:29:35.484Z,32.65
2023-04-28T04:32:09.101Z,30.27
2023-04-28T04:34:37.523Z,23.23
2023-04-28T04:37:06.224Z,18.48
2023-04-28T04:39:36.743Z,22.65
2023-04-28T04:42:16.764Z,24.08
2023-04-28T04:45:14.761Z,18.20
2023-04-28T04:47:43.995Z,14.95
2023-04-28T04:50:13.212Z,13.45
2023-04-28T04:52:41.529Z,10.43
2023-04-28T04:55:11.408Z,10.27
2023-04-28T04:57:42.414Z,10.00
2023-04-28T05:00:33.966Z,8.73
2023-04-28T05:03:04.266Z,8.65
2023-04-28T05:05:33.184Z,9.40
2023-04-28T05:08:24.369Z,10.30
2023-04-28T05:10:52.716Z,9.48
2023-04-28T05:13:21.683Z,9.75
2023-04-28T05:15:56.315Z,7.05
2023-04-28T05:18:44.871Z,7.03
2023-04-28T05:21:13.637Z,10.88
2023-04-28T05:23:41.860Z,7.10
2023-04-28T05:26:10.419Z,11.10
2023-04-28T05:28:41.543Z,8.30
2023-04-28T05:31:10.763Z,9.05
2023-04-28T05:33:39.398Z,8.07
2023-04-28T05:36:08.515Z,10.48
2023-04-28T05:38:37.722Z,5.82
2023-04-28T05:41:07.164Z,9.05
2023-04-28T05:43:36.141Z,7.85
2023-04-28T05:46:09.760Z,8.00
2023-04-28T05:48:43.338Z,12.10
2023-04-28T05:51:12.703Z,10.55
2023-04-28T05:53:41.888Z,6.78
2023-04-28T05:56:10.219Z,9.50
2023-04-28T05:58:39.215Z,7.90
2023-04-28T06:01:07.607Z,8.23
2023-04-28T06:03:36.333Z,10.63
2023-04-28T06:06:07.850Z,8.45
2023-04-28T06:08:38.894Z,10.95
2023-04-28T06:11:07.516Z,13.95
2023-04-28T06:13:36.590Z,12.05
2023-04-28T06:16:05.638Z,14.65
2023-04-28T06:18:34.286Z,17.65
2023-04-28T06:21:04.056Z,13.60
2023-04-28T06:23:32.451Z,13.45
2023-04-28T06:26:01.191Z,12.43
2023-04-28T06:28:29.381Z,12.82
2023-04-28T06:30:57.737Z,11.63
2023-04-28T06:33:26.086Z,15.30
2023-04-28T06:35:54.593Z,14.52
2023-04-28T06:38:23.023Z,12.88
2023-04-28T06:40:51.642Z,9.73
2023-04-28T06:43:20.724Z,16.58
2023-04-28T06:46:01.826Z,12.48
2023-04-28T06:48:30.299Z,15.23
2023-04-28T06:50:58.551Z,11.75
2023-04-28T06:53:29.326Z,14.15
2023-04-28T06:55:57.675Z,9.75
2023-04-28T06:58:26.010Z,12.30
2023-04-28T07:00:54.395Z,12.13
2023-04-28T07:03:22.696Z,14.05
2023-04-28T07:05:51.212Z,11.48
2023-04-28T07:08:19.465Z,13.77
2023-04-28T07:10:47.741Z,10.23
2023-04-28T07:13:16.140Z,11.40
2023-04-28T07:15:44.392Z,11.48
2023-04-28T07:18:12.838Z,13.02
2023-04-28T07:20:41.586Z,12.13
2023-04-28T07:23:10.176Z,9.95
2023-04-28T07:25:39.818Z,13.98
2023-04-28T07:28:08.961Z,9.93
2023-04-28T07:30:37.260Z,10.15
2023-04-28T07:33:05.937Z,12.52
2023-04-28T07:35:34.388Z,6.38
2023-04-28T07:38:03.989Z,9.55
2023-04-28T07:40:32.326Z,7.85
2023-04-28T07:43:00.582Z,7.13
2023-04-28T07:45:28.769Z,7.43
2023-04-28T07:47:56.992Z,5.70
2023-04-28T07:50:25.445Z,7.38
2023-04-28T07:52:53.861Z,4.55
2023-04-28T07:55:22.132Z,4.55
2023-04-28T07:57:50.598Z,3.20
2023-04-28T08:00:19.488Z,3.72
2023-04-28T08:02:48.143Z,4.38
2023-04-28T08:05:17.282Z,2.90
2023-04-28T08:07:45.676Z,3.47
2023-04-28T08:10:14.006Z,5.10
2023-04-28T08:12:42.359Z,3.53
2023-04-28T08:15:11.084Z,5.68
2023-04-28T08:17:39.472Z,7.25
2023-04-28T08:20:08.446Z,7.82
2023-04-28T08:22:36.721Z,7.65
2023-04-28T08:25:05.444Z,3.97
2023-04-28T08:27:34.349Z,5.38
2023-04-28T08:30:02.645Z,8.27
2023-04-28T08:32:30.942Z,5.20
2023-04-28T08:34:59.228Z,4.57
2023-04-28T08:37:30.968Z,6.15
2023-04-28T08:40:09.836Z,9.05
2023-04-28T08:42:39.845Z,10.07
2023-04-28T08:45:12.707Z,6.65
2023-04-28T08:47:45.990Z,7.63
2023-04-28T08:50:15.933Z,9.55
2023-04-28T08:52:44.134Z,8.60
2023-04-28T08:55:13.719Z,8.43
2023-04-28T08:57:43.686Z,11.45
2023-04-28T09:00:12.744Z,13.27
2023-04-28T09:02:44.510Z,8.73
2023-04-28T09:05:15.072Z,13.65
2023-04-28T09:08:03.988Z,7.93
2023-04-28T09:10:32.425Z,10.63
2023-04-28T09:13:00.657Z,13.02
2023-04-28T09:15:33.202Z,9.95
2023-04-28T09:18:04.172Z,11.57
2023-04-28T09:20:34.525Z,7.80
2023-04-28T09:23:19.200Z,9.23
2023-04-28T09:26:00.560Z,10.15
2023-04-28T09:28:28.853Z,12.55
2023-04-28T09:30:57.487Z,9.52
2023-04-28T09:33:26.164Z,10.15
2023-04-28T09:35:54.666Z,8.40
2023-04-28T09:38:23.625Z,11.10
2023-04-28T09:41:00.704Z,11.55
2023-04-28T09:43:33.290Z,8.98
2023-04-28T09:46:03.805Z,9.20
2023-04-28T09:48:32.989Z,5.30
2023-04-28T09:51:03.268Z,7.97
2023-04-28T09:53:32.182Z,5.47
2023-04-28T09:56:02.541Z,7.50
2023-04-28T09:58:33.017Z,5.63
2023-04-28T10:01:02.212Z,6.30
2023-04-28T10:03:31.512Z,5.85
2023-04-28T10:06:02.048Z,6.25
2023-04-28T10:08:30.392Z,5.25
2023-04-28T10:10:59.105Z,4.57
2023-04-28T10:13:27.702Z,8.70
2023-04-28T10:15:58.365Z,7.25
2023-04-28T10:18:27.023Z,10.48
2023-04-28T10:21:00.331Z,4.47
2023-04-28T10:26:14.590Z,5.05
2023-04-28T10:28:51.421Z,5.40
2023-04-28T10:31:22.149Z,5.20
2023-04-28T10:33:50.528Z,9.77
2023-04-28T10:36:51.059Z,6.10
2023-04-28T10:39:19.947Z,6.15
2023-04-28T10:41:49.292Z,8.20
2023-04-28T10:44:43.898Z,6.40
2023-04-28T10:47:12.606Z,5.38
2023-04-28T10:50:13.576Z,6.40
2023-04-28T10:52:49.226Z,7.60
2023-04-28T10:55:34.923Z,5.85
2023-04-28T10:58:27.338Z,6.55
2023-04-28T11:00:55.732Z,4.93
2023-04-28T11:03:49.523Z,3.85
2023-04-28T11:08:47.578Z,3.10
2023-04-28T11:11:20.786Z,3.35
2023-04-28T11:13:50.701Z,4.15
2023-04-28T11:16:24.912Z,4.13
2023-04-28T11:18:59.447Z,4.68
2023-04-28T11:21:28.498Z,3.28
2023-04-28T11:24:00.502Z,6.05
2023-04-28T11:26:29.257Z,5.63
2023-04-28T11:28:58.667Z,5.75
2023-04-28T11:31:27.359Z,4.05
2023-04-28T11:34:06.503Z,4.95
2023-04-28T11:36:39.273Z,3.45
2023-04-28T11:39:09.465Z,9.23
2023-04-28T11:41:39.909Z,7.28
2023-04-28T11:44:16.057Z,7.72
2023-04-28T11:46:55.836Z,7.15
2023-04-28T11:49:25.010Z,6.38
2023-04-28T11:51:53.619Z,6.97
2023-04-28T11:54:27.176Z,5.40
2023-04-28T11:56:57.575Z,6.20
2023-04-28T11:59:31.828Z,6.25
2023-04-28T12:02:07.762Z,5.07
2023-04-28T12:04:38.344Z,4.88
2023-04-28T12:07:10.675Z,9.95
2023-04-28T12:09:40.852Z,5.88
2023-04-28T12:12:11.977Z,6.93
2023-04-28T12:14:59.604Z,4.78
2023-04-28T12:17:37.946Z,7.55
2023-04-28T12:20:09.003Z,5.65
2023-04-28T12:22:48.623Z,5.95
2023-04-28T12:25:19.495Z,6.35
2023-04-28T12:28:07.889Z,6.45
2023-04-28T12:30:44.100Z,7.05
2023-04-28T12:33:29.152Z,9.50
2023-04-28T12:35:58.292Z,7.15
2023-04-28T12:38:28.415Z,10.05
2023-04-28T12:40:57.285Z,11.98
2023-04-28T12:43:27.224Z,10.93
2023-04-28T12:45:56.646Z,11.98
2023-04-28T12:48:25.307Z,9.38
2023-04-28T12:50:53.809Z,14.23
2023-04-28T12:53:22.045Z,11.35
2023-04-28T12:55:50.339Z,11.90
2023-04-28T12:58:18.665Z,12.50
2023-04-28T13:00:47.095Z,10.00
2023-04-28T13:03:15.863Z,10.55
2023-04-28T13:05:44.399Z,8.85
2023-04-28T13:08:14.136Z,10.30
2023-04-28T13:10:42.730Z,10.20
2023-04-28T13:13:11.035Z,8.50
2023-04-28T13:15:39.477Z,12.57
2023-04-28T13:18:08.123Z,10.02
2023-04-28T13:20:36.367Z,12.75
2023-04-28T13:23:04.618Z,11.70
2023-04-28T13:25:32.851Z,11.57
2023-04-28T13:28:01.205Z,11.05
2023-04-28T13:30:29.422Z,14.73
2023-04-28T13:32:57.893Z,16.33
2023-04-28T13:35:27.244Z,16.15
2023-04-28T13:38:02.094Z,13.18
2023-04-28T13:40:30.577Z,16.08
2023-04-28T13:42:58.863Z,13.15
2023-04-28T13:45:27.267Z,14.80
2023-04-28T13:47:55.850Z,12.57
2023-04-28T13:50:24.118Z,14.30
2023-04-28T13:52:52.757Z,14.10
2023-04-28T13:55:27.686Z,13.32
2023-04-28T13:57:57.017Z,12.40
2023-04-28T14:00:25.356Z,14.60
2023-04-28T14:02:53.946Z,14.43
2023-04-28T14:05:22.825Z,18.77
2023-04-28T14:07:51.918Z,16.92
2023-04-28T14:10:20.184Z,18.90
2023-04-28T14:12:49.075Z,14.10
2023-04-28T14:15:18.163Z,17.00
2023-04-28T14:17:46.615Z,15.15
2023-04-28T14:20:15.325Z,15.25
2023-04-28T14:22:44.288Z,18.83
2023-04-28T14:25:12.502Z,14.93
2023-04-28T14:27:41.061Z,17.13
2023-04-28T14:30:10.359Z,17.92
2023-04-28T14:32:40.055Z,18.30
2023-04-28T14:35:09.230Z,19.02
2023-04-28T14:37:37.927Z,25.63
2023-04-28T14:40:07.047Z,23.20
2023-04-28T14:42:37.305Z,24.65
2023-04-28T14:45:10.738Z,22.40
2023-04-28T14:47:40.463Z,21.90
2023-04-28T14:50:10.382Z,22.10
2023-04-28T14:52:39.688Z,26.23
2023-04-28T14:55:08.288Z,21.38
2023-04-28T14:57:40.379Z,22.10
2023-04-28T15:00:09.232Z,25.38
2023-04-28T15:02:37.995Z,23.30
2023-04-28T15:05:07.862Z,21.55
2023-04-28T15:07:36.522Z,29.75
2023-04-28T15:10:05.052Z,31.05
2023-04-28T15:12:34.452Z,30.98
2023-04-28T15:15:02.718Z,32.42
2023-04-28T15:17:30.992Z,23.50
2023-04-28T15:19:59.274Z,30.83
2023-04-28T15:22:27.475Z,27.17
2023-04-28T15:24:56.074Z,28.33
2023-04-28T15:27:24.461Z,29.30
2023-04-28T15:29:52.811Z,27.40
2023-04-28T15:32:21.608Z,31.17
2023-04-28T15:34:50.146Z,31.05
2023-04-28T15:37:37.581Z,31.52
2023-04-28T15:40:06.992Z,29.75
2023-04-28T15:42:35.373Z,26.90
2023-04-28T15:45:03.957Z,32.95
2023-04-28T15:47:33.123Z,28.52
2023-04-28T15:50:01.482Z,27.05
2023-04-28T15:52:31.012Z,31.75
2023-04-28T15:55:00.830Z,36.28
2023-04-28T15:57:29.855Z,31.02
2023-04-28T15:59:58.882Z,32.80
2023-04-28T16:02:27.558Z,34.05
2023-04-28T16:04:56.583Z,33.95
2023-04-28T16:07:28.325Z,30.27
2023-04-28T16:09:56.750Z,31.23
2023-04-28T16:12:28.585Z,26.65
2023-04-28T16:14:57.951Z,31.77
2023-04-28T16:17:26.390Z,34.05
2023-04-28T16:19:58.749Z,26.90
2023-04-28T16:22:29.796Z,26.55
2023-04-28T16:25:00.528Z,26.27
2023-04-28T16:27:31.450Z,29.33
2023-04-28T16:30:00.862Z,29.42
2023-04-28T16:32:29.675Z,26.20
2023-04-28T16:35:00.586Z,24.05
2023-04-28T16:37:29.102Z,24.60
2023-04-28T16:42:46.222Z,27.38
2023-04-28T16:45:14.800Z,27.25
2023-04-28T16:47:43.942Z,22.48
2023-04-28T16:50:14.834Z,25.55
2023-04-28T16:52:43.275Z,27.80
2023-04-28T16:55:11.908Z,28.58
2023-04-28T16:57:40.225Z,23.08
2023-04-28T17:00:09.399Z,27.50
2023-04-28T17:02:38.301Z,28.33
2023-04-28T17:05:07.383Z,23.58
2023-04-28T17:07:35.650Z,25.67
2023-04-28T17:10:04.059Z,26.75
2023-04-28T17:12:32.358Z,26.40
2023-04-28T17:15:00.713Z,27.38
2023-04-28T17:17:29.191Z,26.70
2023-04-28T17:19:59.923Z,30.25
2023-04-28T17:22:30.185Z,26.30
2023-04-28T17:24:58.423Z,25.52
2023-04-28T17:27:26.706Z,26.83
2023-04-28T17:29:55.286Z,31.55
2023-04-28T17:32:23.541Z,26.42
2023-04-28T17:34:52.209Z,27.67
2023-04-28T17:37:20.603Z,26.83
2023-04-28T17:39:51.130Z,26.35
2023-04-28T17:42:19.689Z,29.00
2023-04-28T17:44:47.912Z,25.95
2023-04-28T17:47:17.426Z,22.67
2023-04-28T17:49:45.947Z,20.65
2023-04-28T17:52:15.539Z,25.45
2023-04-28T17:54:43.850Z,24.95
2023-04-28T17:57:13.039Z,24.77
2023-04-28T17:59:42.676Z,21.70
2023-04-28T18:02:11.915Z,25.77
2023-04-28T18:04:40.305Z,24.00
2023-04-28T18:07:08.573Z,21.52
2023-04-28T18:09:36.915Z,24.27
2023-04-28T18:12:05.617Z,24.77
2023-04-28T18:14:34.045Z,22.02
2023-04-28T18:17:02.277Z,25.52
2023-04-28T18:19:30.694Z,30.23
2023-04-28T18:21:59.009Z,29.50
2023-04-28T18:24:27.447Z,24.95
2023-04-28T18:26:55.757Z,21.67
2023-04-28T18:29:24.090Z,23.55
2023-04-28T18:31:52.439Z,22.10
2023-04-28T18:34:20.806Z,21.13
2023-04-28T18:36:49.978Z,25.30
2023-04-28T18:39:18.539Z,20.58
2023-04-28T18:41:46.839Z,28.15
2023-04-28T18:44:15.140Z,23.85
2023-04-28T18:46:43.427Z,27.33
2023-04-28T18:49:12.781Z,21.02
2023-04-28T18:51:41.131Z,20.85
2023-04-28T18:54:09.567Z,22.55
2023-04-28T18:56:40.253Z,20.33
2023-04-28T18:59:09.002Z,20.88
2023-04-28T19:01:38.338Z,21.35
2023-04-28T19:04:06.892Z,27.02
2023-04-28T19:06:36.291Z,28.88
2023-04-28T19:09:04.820Z,23.58
2023-04-28T19:11:33.265Z,17.67
2023-04-28T19:14:01.591Z,20.15
2023-04-28T19:16:29.878Z,18.38
2023-04-28T19:18:58.316Z,22.98
2023-04-28T19:21:26.898Z,17.67
2023-04-28T19:23:55.244Z,17.25
2023-04-28T19:26:24.158Z,18.50
2023-04-28T19:28:53.382Z,19.88
2023-04-28T19:31:21.626Z,18.90
2023-04-28T19:33:49.943Z,15.68
2023-04-28T19:36:18.349Z,15.80
2023-04-28T19:38:46.880Z,18.23
2023-04-28T19:41:15.164Z,15.27
2023-04-28T19:43:43.922Z,16.02
2023-04-28T19:46:13.049Z,16.25
2023-04-28T19:48:41.698Z,16.20
2023-04-28T19:51:09.870Z,13.85
2023-04-28T19:53:40.622Z,14.48
2023-04-28T19:56:10.216Z,14.00
2023-04-28T19:58:38.544Z,13.15
2023-04-28T20:01:07.305Z,11.95
2023-04-28T20:03:36.373Z,10.82
2023-04-28T20:06:05.320Z,14.07
2023-04-28T20:08:33.675Z,16.20
2023-04-28T20:11:01.910Z,13.30
2023-04-28T20:13:30.349Z,12.57
2023-04-28T20:15:58.596Z,11.93
2023-04-28T20:18:26.796Z,16.33
2023-04-28T20:20:55.080Z,13.75
2023-04-28T20:23:23.540Z,17.33
2023-04-28T20:25:51.886Z,17.13
2023-04-28T20:28:20.274Z,13.10
2023-04-28T20:30:48.441Z,14.38
2023-04-28T20:33:17.817Z,14.75
2023-04-28T20:35:46.036Z,14.70
2023-04-28T20:38:14.622Z,15.52
2023-04-28T20:40:44.232Z,15.80
2023-04-28T20:43:15.324Z,19.25
2023-04-28T20:45:43.520Z,16.52
2023-04-28T20:48:11.905Z,15.77
2023-04-28T20:50:41.211Z,15.85
2023-04-28T20:53:09.780Z,16.10
2023-04-28T20:55:38.127Z,14.85
2023-04-28T20:58:07.473Z,13.68
2023-04-28T21:00:40.084Z,14.95
2023-04-28T21:03:15.088Z,19.40
2023-04-28T21:05:45.752Z,21.45
2023-04-28T21:08:14.060Z,15.52
2023-04-28T21:10:42.471Z,16.55
2023-04-28T21:13:10.717Z,14.70
2023-04-28T21:15:40.627Z,18.50
2023-04-28T21:18:08.903Z,16.55
2023-04-28T21:20:37.432Z,16.02
2023-04-28T21:23:07.518Z,16.58
2023-04-28T21:25:36.783Z,17.85
2023-04-28T21:28:05.237Z,14.73
2023-04-28T21:30:33.511Z,16.65
2023-04-28T21:33:02.094Z,19.83
2023-04-28T21:35:30.680Z,14.77
2023-04-28T21:37:59.035Z,18.85
2023-04-28T21:40:27.332Z,16.90
2023-04-28T21:42:55.717Z,21.50
2023-04-28T21:45:23.960Z,18.17
2023-04-28T21:47:52.212Z,15.95
2023-04-28T21:50:20.414Z,18.27
2023-04-28T21:52:48.644Z,21.48
2023-04-28T21:55:17.080Z,17.73
2023-04-28T21:57:45.758Z,17.23
2023-04-28T22:00:14.653Z,19.67
2023-04-28T22:02:43.768Z,18.42
2023-04-28T22:05:12.365Z,20.25
2023-04-28T22:07:40.787Z,23.25
2023-04-28T22:10:10.238Z,16.55
2023-04-28T22:12:38.688Z,19.70
2023-04-28T22:15:07.553Z,16.23
2023-04-28T22:17:35.899Z,22.13
2023-04-28T22:20:04.762Z,18.33
2023-04-28T22:22:33.658Z,18.08
2023-04-28T22:25:02.037Z,24.42
2023-04-28T22:27:30.594Z,19.17
2023-04-28T22:29:59.001Z,21.88
2023-04-28T22:32:27.629Z,17.35
2023-04-28T22:34:55.839Z,23.60
2023-04-28T22:37:24.033Z,21.00
2023-04-28T22:39:52.614Z,20.48
2023-04-28T22:42:21.179Z,17.05
2023-04-28T22:44:49.389Z,22.13
2023-04-28T22:47:18.062Z,20.30
2023-04-28T22:49:46.631Z,19.27
2023-04-28T22:52:14.919Z,24.13
2023-04-28T22:54:43.162Z,21.55
2023-04-28T22:57:11.623Z,17.90
2023-04-28T22:59:39.802Z,18.52
2023-04-28T23:02:09.054Z,20.33
2023-04-28T23:04:37.496Z,25.83
2023-04-28T23:07:07.108Z,19.25
2023-04-28T23:09:37.183Z,23.60
2023-04-28T23:12:06.172Z,20.05
2023-04-28T23:14:34.517Z,17.20
2023-04-28T23:17:02.868Z,19.60
2023-04-28T23:19:31.752Z,21.35
2023-04-28T23:21:59.950Z,21.15
2023-04-28T23:24:28.348Z,21.83
2023-04-28T23:26:56.743Z,19.58
2023-04-28T23:29:25.213Z,23.33
2023-04-28T23:31:54.979Z,16.63
2023-04-28T23:34:24.085Z,17.55
2023-04-28T23:36:52.580Z,20.55
2023-04-28T23:39:20.886Z,19.70
2023-04-28T23:41:49.162Z,19.23
2023-04-28T23:44:17.566Z,17.90
2023-04-28T23:46:45.759Z,16.50
2023-04-28T23:49:13.988Z,19.10
2023-04-28T23:51:42.528Z,17.85
2023-04-28T23:54:11.586Z,14.68
2023-04-28T23:56:39.869Z,20.55
2023-04-28T23:59:08.411Z,16.77
